createdAt,value
2023-03-22T00:01:20.706Z,11.17
2023-03-22T00:03:25.412Z,10.30
2023-03-22T00:05:30.378Z,10.60
2023-03-22T00:07:33.136Z,10.53
2023-03-22T00:09:36.437Z,10.07
2023-03-22T00:11:39.191Z,10.00
2023-03-22T00:13:43.936Z,9.60
2023-03-22T00:15:49.434Z,10.40
2023-03-22T00:17:52.227Z,9.90
2023-03-22T00:19:56.308Z,10.90
2023-03-22T00:22:00.698Z,10.30
2023-03-22T00:24:03.497Z,9.30
2023-03-22T00:26:07.017Z,10.07
2023-03-22T00:28:09.793Z,10.10
2023-03-22T00:30:13.464Z,9.57
2023-03-22T00:32:16.205Z,10.37
2023-03-22T00:34:18.989Z,10.30
2023-03-22T00:36:23.266Z,10.70
2023-03-22T00:38:42.032Z,10.33
2023-03-22T00:40:45.754Z,10.10
2023-03-22T00:42:48.540Z,10.20
2023-03-22T00:44:51.341Z,10.87
2023-03-22T00:46:54.320Z,10.50
2023-03-22T00:48:57.397Z,10.83
2023-03-22T00:51:00.221Z,10.33
2023-03-22T00:53:04.501Z,10.57
2023-03-22T00:55:07.850Z,10.40
2023-03-22T00:57:10.781Z,9.97
2023-03-22T00:59:14.125Z,9.57
2023-03-22T01:01:16.891Z,10.23
2023-03-22T01:03:21.885Z,9.97
2023-03-22T01:05:24.740Z,10.23
2023-03-22T01:07:27.558Z,10.17
2023-03-22T01:09:33.841Z,9.57
2023-03-22T01:11:36.650Z,10.73
2023-03-22T01:13:41.733Z,9.47
2023-03-22T01:15:44.902Z,10.37
2023-03-22T01:17:47.709Z,10.03
2023-03-22T01:19:50.642Z,9.67
2023-03-22T01:21:53.553Z,9.43
2023-03-22T01:23:56.337Z,9.77
2023-03-22T01:26:01.340Z,9.97
2023-03-22T01:28:04.294Z,10.13
2023-03-22T01:30:08.643Z,10.13
2023-03-22T01:32:11.437Z,10.03
2023-03-22T01:34:14.461Z,9.43
2023-03-22T01:36:17.225Z,9.77
2023-03-22T01:38:20.576Z,10.17
2023-03-22T01:40:23.525Z,9.63
2023-03-22T01:42:28.011Z,10.03
2023-03-22T01:44:31.678Z,10.43
2023-03-22T01:46:34.486Z,9.57
2023-03-22T01:48:42.046Z,10.07
2023-03-22T01:50:49.527Z,9.70
2023-03-22T01:52:54.081Z,10.00
2023-03-22T01:54:57.352Z,10.13
2023-03-22T01:57:01.524Z,10.53
2023-03-22T01:59:07.351Z,9.67
2023-03-22T02:01:12.016Z,10.40
2023-03-22T02:03:19.180Z,9.80
2023-03-22T02:05:23.147Z,9.90
2023-03-22T02:07:27.349Z,9.10
2023-03-22T02:09:30.487Z,10.90
2023-03-22T02:11:36.166Z,10.37
2023-03-22T02:14:05.995Z,10.53
2023-03-22T02:16:22.687Z,10.73
2023-03-22T02:18:39.913Z,10.30
2023-03-22T02:21:25.896Z,10.40
2023-03-22T02:24:00.772Z,10.13
2023-03-22T02:26:31.006Z,10.70
2023-03-22T02:28:43.602Z,10.63
2023-03-22T02:31:15.565Z,9.47
2023-03-22T02:33:34.942Z,10.20
2023-03-22T02:35:56.702Z,10.20
2023-03-22T02:38:27.665Z,11.10
2023-03-22T02:40:35.966Z,10.80
2023-03-22T02:42:50.921Z,11.40
2023-03-22T02:45:02.893Z,10.83
2023-03-22T02:47:09.602Z,11.20
2023-03-22T02:49:20.515Z,11.10
2023-03-22T02:51:30.560Z,11.33
2023-03-22T02:53:37.270Z,11.27
2023-03-22T02:55:57.394Z,10.67
2023-03-22T02:58:04.370Z,10.07
2023-03-22T03:00:12.380Z,11.60
2023-03-22T03:02:18.486Z,10.97
2023-03-22T03:04:26.800Z,11.43
2023-03-22T03:06:35.721Z,11.30
2023-03-22T03:08:39.879Z,11.03
2023-03-22T03:10:43.404Z,10.73
2023-03-22T03:12:47.737Z,11.33
2023-03-22T03:14:50.693Z,10.97
2023-03-22T03:17:10.545Z,11.20
2023-03-22T03:19:19.872Z,11.67
2023-03-22T03:21:32.736Z,11.13
2023-03-22T03:23:46.926Z,11.57
2023-03-22T03:25:58.835Z,11.63
2023-03-22T03:28:10.061Z,11.10
2023-03-22T03:30:17.109Z,12.40
2023-03-22T03:32:25.592Z,11.20
2023-03-22T03:34:34.431Z,12.17
2023-03-22T03:36:39.342Z,11.77
2023-03-22T03:38:47.031Z,12.13
2023-03-22T03:40:53.605Z,12.63
2023-03-22T03:42:59.023Z,12.03
2023-03-22T03:45:03.457Z,13.20
2023-03-22T03:47:08.364Z,13.20
2023-03-22T03:49:13.932Z,12.67
2023-03-22T03:51:16.762Z,13.70
2023-03-22T03:53:19.619Z,13.33
2023-03-22T03:55:22.951Z,14.37
2023-03-22T03:57:25.750Z,12.83
2023-03-22T03:59:28.548Z,12.53
2023-03-22T04:01:32.665Z,14.30
2023-03-22T04:03:35.438Z,14.50
2023-03-22T04:05:38.484Z,13.97
2023-03-22T04:07:41.747Z,13.50
2023-03-22T04:09:44.504Z,13.20
2023-03-22T04:11:47.242Z,14.43
2023-03-22T04:13:50.021Z,14.10
2023-03-22T04:15:57.439Z,14.63
2023-03-22T04:18:01.612Z,15.47
2023-03-22T04:20:06.216Z,14.83
2023-03-22T04:22:14.485Z,13.93
2023-03-22T04:24:17.258Z,14.83
2023-03-22T04:26:19.993Z,14.47
2023-03-22T04:28:24.019Z,13.57
2023-03-22T04:30:27.453Z,14.30
2023-03-22T04:32:30.252Z,15.10
2023-03-22T04:34:34.341Z,14.97
2023-03-22T04:36:39.468Z,15.00
2023-03-22T04:38:42.734Z,14.77
2023-03-22T04:40:46.790Z,16.07
2023-03-22T04:42:49.660Z,16.00
2023-03-22T04:44:52.460Z,15.90
2023-03-22T04:46:55.824Z,16.80
2023-03-22T04:48:59.170Z,17.27
2023-03-22T04:51:04.183Z,16.17
2023-03-22T04:53:07.352Z,17.00
2023-03-22T04:55:10.396Z,16.37
2023-03-22T04:57:13.151Z,16.73
2023-03-22T04:59:17.860Z,17.00
2023-03-22T05:01:20.731Z,15.10
2023-03-22T05:03:23.800Z,15.80
2023-03-22T05:05:26.650Z,15.00
2023-03-22T05:07:30.748Z,15.23
2023-03-22T05:09:34.011Z,15.07
2023-03-22T05:11:36.793Z,16.03
2023-03-22T05:13:40.022Z,18.73
2023-03-22T05:15:42.801Z,17.17
2023-03-22T05:17:45.786Z,18.23
2023-03-22T05:19:48.561Z,15.87
2023-03-22T05:21:57.923Z,16.53
2023-03-22T05:24:02.087Z,16.70
2023-03-22T05:26:04.985Z,16.87
2023-03-22T05:28:08.633Z,17.43
2023-03-22T05:30:12.037Z,17.27
2023-03-22T05:32:14.802Z,16.10
2023-03-22T05:34:17.588Z,17.20
2023-03-22T05:36:22.852Z,17.10
2023-03-22T05:38:25.684Z,16.43
2023-03-22T05:40:29.811Z,18.60
2023-03-22T05:42:32.722Z,18.17
2023-03-22T05:44:35.459Z,16.57
2023-03-22T05:46:38.280Z,17.27
2023-03-22T05:48:41.626Z,16.93
2023-03-22T05:50:44.377Z,17.03
2023-03-22T05:52:47.404Z,16.43
2023-03-22T05:54:50.276Z,17.67
2023-03-22T05:56:55.809Z,17.47
2023-03-22T05:58:59.160Z,17.67
2023-03-22T06:01:07.159Z,18.03
2023-03-22T06:03:09.992Z,17.07
2023-03-22T06:05:14.004Z,17.63
2023-03-22T06:07:16.823Z,16.73
2023-03-22T06:09:19.563Z,16.73
2023-03-22T06:11:22.687Z,17.90
2023-03-22T06:13:26.951Z,17.73
2023-03-22T06:15:29.704Z,18.60
2023-03-22T06:17:32.548Z,17.73
2023-03-22T06:19:35.383Z,17.10
2023-03-22T06:21:38.097Z,17.77
2023-03-22T06:23:41.395Z,16.87
2023-03-22T06:25:44.538Z,17.07
2023-03-22T06:27:47.279Z,17.77
2023-03-22T06:29:54.638Z,18.63
2023-03-22T06:31:57.384Z,17.20
2023-03-22T06:34:00.331Z,17.37
2023-03-22T06:36:03.436Z,16.70
2023-03-22T06:38:06.303Z,16.53
2023-03-22T06:40:10.566Z,17.67
2023-03-22T06:42:13.354Z,17.13
2023-03-22T06:44:16.599Z,16.20
2023-03-22T06:46:20.833Z,16.20
2023-03-22T06:48:23.682Z,16.67
2023-03-22T06:50:26.456Z,15.37
2023-03-22T06:52:29.185Z,15.63
2023-03-22T06:54:32.018Z,15.47
2023-03-22T06:56:34.756Z,14.93
2023-03-22T06:58:37.549Z,14.53
2023-03-22T07:00:40.674Z,14.67
2023-03-22T07:02:44.857Z,14.13
2023-03-22T07:04:47.817Z,13.63
2023-03-22T07:06:50.938Z,13.83
2023-03-22T07:08:53.722Z,12.87
2023-03-22T07:10:56.461Z,12.97
2023-03-22T07:12:59.297Z,12.63
2023-03-22T07:15:02.126Z,12.67
2023-03-22T07:17:04.957Z,12.00
2023-03-22T07:19:09.079Z,12.80
2023-03-22T07:21:11.856Z,11.87
2023-03-22T07:23:15.476Z,11.10
2023-03-22T07:25:19.161Z,11.43
2023-03-22T07:27:22.080Z,11.47
2023-03-22T07:29:24.931Z,12.70
2023-03-22T07:31:29.170Z,10.97
2023-03-22T07:33:31.928Z,9.20
2023-03-22T07:35:36.986Z,8.93
2023-03-22T07:37:39.743Z,8.60
2023-03-22T07:39:42.480Z,8.03
2023-03-22T07:41:45.370Z,8.10
2023-03-22T07:43:56.666Z,7.03
2023-03-22T07:46:03.470Z,7.07
2023-03-22T07:48:06.384Z,6.87
2023-03-22T07:50:11.785Z,7.30
2023-03-22T07:52:15.968Z,7.50
2023-03-22T07:54:32.470Z,7.63
2023-03-22T07:56:36.731Z,7.47
2023-03-22T07:58:39.508Z,7.83
2023-03-22T08:00:42.272Z,8.37
2023-03-22T08:02:47.648Z,8.60
2023-03-22T08:04:54.508Z,7.97
2023-03-22T08:06:59.993Z,7.40
2023-03-22T08:09:04.637Z,7.50
2023-03-22T08:11:08.660Z,6.90
2023-03-22T08:13:11.628Z,7.30
2023-03-22T08:15:14.431Z,7.17
2023-03-22T08:17:17.490Z,7.53
2023-03-22T08:19:20.639Z,7.83
2023-03-22T08:21:23.498Z,7.10
2023-03-22T08:23:40.470Z,6.80
2023-03-22T08:25:45.771Z,7.10
2023-03-22T08:27:48.835Z,6.87
2023-03-22T08:29:51.629Z,6.83
2023-03-22T08:31:55.689Z,6.50
2023-03-22T08:33:59.700Z,6.70
2023-03-22T08:36:07.419Z,6.30
2023-03-22T08:38:10.380Z,6.17
2023-03-22T08:40:13.649Z,5.90
2023-03-22T08:42:17.873Z,6.00
2023-03-22T08:44:20.614Z,5.23
2023-03-22T08:46:23.368Z,5.43
2023-03-22T08:48:29.034Z,5.60
2023-03-22T08:50:34.327Z,5.50
2023-03-22T08:52:37.076Z,5.53
2023-03-22T08:54:39.815Z,5.80
2023-03-22T08:56:42.526Z,5.83
2023-03-22T08:58:46.848Z,5.00
2023-03-22T09:00:49.993Z,5.37
2023-03-22T09:02:52.925Z,5.13
2023-03-22T09:04:55.874Z,5.20
2023-03-22T09:06:58.640Z,5.13
2023-03-22T09:09:01.400Z,5.27
2023-03-22T09:11:04.472Z,5.57
2023-03-22T09:13:07.410Z,5.47
2023-03-22T09:15:12.053Z,4.93
2023-03-22T09:17:14.864Z,4.50
2023-03-22T09:19:17.656Z,5.00
2023-03-22T09:21:21.768Z,4.60
2023-03-22T09:23:24.571Z,5.23
2023-03-22T09:25:27.384Z,4.40
2023-03-22T09:27:30.720Z,4.20
2023-03-22T09:29:33.857Z,4.40
2023-03-22T09:31:38.086Z,4.20
2023-03-22T09:33:41.797Z,3.87
2023-03-22T09:35:45.008Z,4.20
2023-03-22T09:37:49.260Z,4.37
2023-03-22T09:39:52.103Z,4.13
2023-03-22T09:41:58.382Z,4.23
2023-03-22T09:44:05.081Z,4.20
2023-03-22T09:46:12.802Z,4.20
2023-03-22T09:48:21.762Z,3.73
2023-03-22T09:50:26.374Z,3.97
2023-03-22T09:52:30.675Z,4.23
2023-03-22T09:54:35.369Z,4.00
2023-03-22T09:56:38.394Z,4.70
2023-03-22T09:58:47.869Z,3.97
2023-03-22T10:00:56.968Z,3.80
2023-03-22T10:03:08.906Z,3.50
2023-03-22T10:05:19.689Z,3.63
2023-03-22T10:07:32.069Z,3.77
2023-03-22T10:09:43.096Z,3.90
2023-03-22T10:11:50.159Z,3.70
2023-03-22T10:14:01.833Z,3.40
2023-03-22T10:16:07.818Z,3.70
2023-03-22T10:18:16.981Z,3.50
2023-03-22T10:20:30.148Z,3.40
2023-03-22T10:22:37.334Z,3.67
2023-03-22T10:24:42.647Z,4.57
2023-03-22T10:26:47.785Z,4.40
2023-03-22T10:28:56.237Z,3.70
2023-03-22T10:30:59.545Z,3.40
2023-03-22T10:33:04.923Z,3.47
2023-03-22T10:35:08.632Z,3.63
2023-03-22T10:37:17.513Z,3.30
2023-03-22T10:39:29.584Z,3.93
2023-03-22T10:41:34.756Z,3.67
2023-03-22T10:43:39.787Z,3.10
2023-03-22T10:45:44.057Z,3.10
2023-03-22T10:47:51.190Z,3.57
2023-03-22T10:49:57.061Z,3.67
2023-03-22T10:52:04.697Z,3.30
2023-03-22T10:54:14.486Z,3.10
2023-03-22T10:56:20.060Z,3.27
2023-03-22T10:58:29.689Z,2.90
2023-03-22T11:00:32.860Z,3.03
2023-03-22T11:02:35.708Z,3.10
2023-03-22T11:04:38.592Z,3.20
2023-03-22T11:06:53.352Z,3.40
2023-03-22T11:09:01.291Z,3.10
2023-03-22T11:11:07.776Z,2.83
2023-03-22T11:13:21.530Z,3.53
2023-03-22T11:15:27.637Z,3.00
2023-03-22T11:17:33.055Z,3.30
2023-03-22T11:19:37.995Z,3.40
2023-03-22T11:21:43.263Z,2.90
2023-03-22T11:23:55.593Z,3.13
2023-03-22T11:26:05.977Z,2.90
2023-03-22T11:28:17.470Z,2.97
2023-03-22T11:30:23.523Z,2.90
2023-03-22T11:32:29.024Z,2.37
2023-03-22T11:34:32.605Z,2.90
2023-03-22T11:36:45.267Z,2.77
2023-03-22T11:38:48.976Z,2.80
2023-03-22T11:40:56.250Z,2.80
2023-03-22T11:43:18.123Z,2.80
2023-03-22T11:45:27.777Z,2.60
2023-03-22T11:47:37.894Z,2.60
2023-03-22T11:49:46.686Z,2.80
2023-03-22T11:51:50.072Z,2.30
2023-03-22T11:53:57.633Z,2.40
2023-03-22T11:56:00.888Z,2.50
2023-03-22T11:58:04.954Z,2.13
2023-03-22T12:00:19.968Z,2.30
2023-03-22T12:02:26.826Z,2.20
2023-03-22T12:04:32.657Z,2.23
2023-03-22T12:06:39.899Z,2.10
2023-03-22T12:08:47.384Z,2.13
2023-03-22T12:10:54.589Z,2.13
2023-03-22T12:13:01.365Z,2.20
2023-03-22T12:15:08.876Z,2.30
2023-03-22T12:17:18.546Z,2.30
2023-03-22T12:19:36.930Z,3.10
2023-03-22T12:21:39.777Z,3.27
2023-03-22T12:23:42.579Z,2.47
2023-03-22T12:25:51.273Z,2.67
2023-03-22T12:27:58.083Z,2.40
2023-03-22T12:30:08.007Z,2.40
2023-03-22T12:32:18.621Z,2.60
2023-03-22T12:34:26.112Z,2.27
2023-03-22T12:36:35.716Z,2.37
2023-03-22T12:38:42.201Z,2.60
2023-03-22T12:40:45.672Z,2.33
2023-03-22T12:42:58.377Z,2.47
2023-03-22T12:45:05.927Z,2.60
2023-03-22T12:47:17.384Z,2.60
2023-03-22T12:49:28.523Z,2.20
2023-03-22T12:51:31.356Z,2.70
2023-03-22T12:53:42.358Z,2.47
2023-03-22T12:55:46.863Z,2.77
2023-03-22T12:57:52.390Z,2.40
2023-03-22T12:59:58.333Z,2.60
2023-03-22T13:02:07.329Z,2.30
2023-03-22T13:04:33.116Z,2.23
2023-03-22T13:06:57.007Z,2.43
2023-03-22T13:09:15.636Z,2.03
2023-03-22T13:11:25.277Z,2.00
2023-03-22T13:13:42.135Z,2.27
2023-03-22T13:16:03.796Z,2.40
2023-03-22T13:18:23.897Z,1.90
2023-03-22T13:20:30.828Z,2.27
2023-03-22T13:23:04.799Z,2.50
2023-03-22T13:25:16.742Z,2.53
2023-03-22T13:27:19.970Z,1.87
2023-03-22T13:29:25.274Z,2.13
2023-03-22T13:31:38.425Z,2.37
2023-03-22T13:33:41.304Z,2.20
2023-03-22T13:35:48.693Z,1.80
2023-03-22T13:37:52.774Z,2.03
2023-03-22T13:39:56.897Z,1.93
2023-03-22T13:42:08.490Z,2.23
2023-03-22T13:44:25.522Z,1.73
2023-03-22T13:46:45.429Z,2.10
2023-03-22T13:49:14.358Z,1.90
2023-03-22T13:51:22.222Z,2.00
2023-03-22T13:53:31.019Z,2.00
2023-03-22T13:55:42.332Z,1.70
2023-03-22T13:57:58.835Z,2.23
2023-03-22T14:00:13.586Z,1.70
2023-03-22T14:02:25.903Z,1.60
2023-03-22T14:04:35.102Z,1.60
2023-03-22T14:06:48.527Z,1.83
2023-03-22T14:08:56.677Z,1.60
2023-03-22T14:11:04.980Z,1.60
2023-03-22T14:13:16.446Z,1.40
2023-03-22T14:15:22.681Z,1.40
2023-03-22T14:17:35.401Z,1.70
2023-03-22T14:19:39.115Z,1.73
2023-03-22T14:21:47.785Z,1.57
